sensor_id;sensor_type;location;lat;lon;timestamp;temperature;humidity
19007;DHT22;9636;47.382;8.480;2023-11-18T00:00:47;12.60;99.90
19007;DHT22;9636;47.382;8.480;2023-11-18T00:03:13;12.60;99.90
19007;DHT22;9636;47.382;8.480;2023-11-18T00:05:40;12.60;99.90
19007;DHT22;9636;47.382;8.480;2023-11-18T00:10:45;12.50;99.90
19007;DHT22;9636;47.382;8.480;2023-11-18T00:13:12;12.50;99.90
19007;DHT22;9636;47.382;8.480;2023-11-18T00:15:39;12.50;99.90
19007;DHT22;9636;47.382;8.480;2023-11-18T00:18:09;12.50;99.90
19007;DHT22;9636;47.382;8.480;2023-11-18T00:20:37;12.50;99.90
19007;DHT22;9636;47.382;8.480;2023-11-18T00:23:04;12.50;99.90
19007;DHT22;9636;47.382;8.480;2023-11-18T00:25:31;12.40;99.90
19007;DHT22;9636;47.382;8.480;2023-11-18T00:27:59;12.50;99.90
19007;DHT22;9636;47.382;8.480;2023-11-18T00:30:26;12.40;99.90
19007;DHT22;9636;47.382;8.480;2023-11-18T00:32:53;12.40;99.90
19007;DHT22;9636;47.382;8.480;2023-11-18T00:35:22;12.40;99.90
19007;DHT22;9636;47.382;8.480;2023-11-18T00:37:49;12.40;99.90
19007;DHT22;9636;47.382;8.480;2023-11-18T00:40:15;12.40;99.90
19007;DHT22;9636;47.382;8.480;2023-11-18T00:42:43;12.40;99.90
19007;DHT22;9636;47.382;8.480;2023-11-18T00:45:10;12.40;99.90
19007;DHT22;9636;47.382;8.480;2023-11-18T00:47:38;12.40;99.90
19007;DHT22;9636;47.382;8.480;2023-11-18T00:50:07;12.40;99.90
19007;DHT22;9636;47.382;8.480;2023-11-18T00:52:36;12.30;99.90
19007;DHT22;9636;47.382;8.480;2023-11-18T00:55:04;12.30;99.90
19007;DHT22;9636;47.382;8.480;2023-11-18T00:57:33;12.30;99.90
19007;DHT22;9636;47.382;8.480;2023-11-18T00:59:59;12.30;99.90
19007;DHT22;9636;47.382;8.480;2023-11-18T01:02:26;12.30;99.90
19007;DHT22;9636;47.382;8.480;2023-11-18T01:04:53;12.30;99.90
19007;DHT22;9636;47.382;8.480;2023-11-18T01:07:21;12.30;99.90
19007;DHT22;9636;47.382;8.480;2023-11-18T01:09:49;12.30;99.90
19007;DHT22;9636;47.382;8.480;2023-11-18T01:12:15;12.30;99.90
19007;DHT22;9636;47.382;8.480;2023-11-18T01:14:42;12.20;99.90
19007;DHT22;9636;47.382;8.480;2023-11-18T01:17:09;12.20;99.90
19007;DHT22;9636;47.382;8.480;2023-11-18T01:19:36;12.20;99.90
19007;DHT22;9636;47.382;8.480;2023-11-18T01:22:03;12.20;99.90
19007;DHT22;9636;47.382;8.480;2023-11-18T01:24:31;12.20;99.90
19007;DHT22;9636;47.382;8.480;2023-11-18T01:27:00;12.20;99.90
19007;DHT22;9636;47.382;8.480;2023-11-18T01:29:27;12.20;99.90
19007;DHT22;9636;47.382;8.480;2023-11-18T01:31:54;12.20;99.90
19007;DHT22;9636;47.382;8.480;2023-11-18T01:34:22;12.10;99.90
19007;DHT22;9636;47.382;8.480;2023-11-18T01:36:49;12.10;99.90
19007;DHT22;9636;47.382;8.480;2023-11-18T01:39:16;12.10;99.90
19007;DHT22;9636;47.382;8.480;2023-11-18T01:41:44;12.10;99.90
19007;DHT22;9636;47.382;8.480;2023-11-18T01:44:12;12.10;99.90
19007;DHT22;9636;47.382;8.480;2023-11-18T01:46:40;12.10;99.90
19007;DHT22;9636;47.382;8.480;2023-11-18T01:49:10;12.10;99.90
19007;DHT22;9636;47.382;8.480;2023-11-18T01:51:40;12.10;99.90
19007;DHT22;9636;47.382;8.480;2023-11-18T01:54:08;12.00;99.90
19007;DHT22;9636;47.382;8.480;2023-11-18T01:56:38;12.00;99.90
19007;DHT22;9636;47.382;8.480;2023-11-18T01:59:05;12.00;99.90
19007;DHT22;9636;47.382;8.480;2023-11-18T02:01:37;12.00;99.90
19007;DHT22;9636;47.382;8.480;2023-11-18T02:04:05;12.00;99.90
19007;DHT22;9636;47.382;8.480;2023-11-18T02:06:33;12.00;99.90
19007;DHT22;9636;47.382;8.480;2023-11-18T02:09:01;12.00;99.90
19007;DHT22;9636;47.382;8.480;2023-11-18T02:11:32;12.00;99.90
19007;DHT22;9636;47.382;8.480;2023-11-18T02:14:07;11.90;99.90
19007;DHT22;9636;47.382;8.480;2023-11-18T02:16:40;11.90;99.90
19007;DHT22;9636;47.382;8.480;2023-11-18T02:19:15;11.90;99.90
19007;DHT22;9636;47.382;8.480;2023-11-18T02:21:44;11.80;99.90
19007;DHT22;9636;47.382;8.480;2023-11-18T02:24:11;11.80;99.90
19007;DHT22;9636;47.382;8.480;2023-11-18T02:26:52;11.80;99.90
19007;DHT22;9636;47.382;8.480;2023-11-18T02:29:18;11.80;99.90
19007;DHT22;9636;47.382;8.480;2023-11-18T02:31:47;11.80;99.90
19007;DHT22;9636;47.382;8.480;2023-11-18T02:34:21;11.80;99.90
19007;DHT22;9636;47.382;8.480;2023-11-18T02:36:52;11.80;99.90
19007;DHT22;9636;47.382;8.480;2023-11-18T02:39:32;11.70;99.90
19007;DHT22;9636;47.382;8.480;2023-11-18T02:42:01;11.70;99.90
19007;DHT22;9636;47.382;8.480;2023-11-18T02:44:30;11.70;99.90
19007;DHT22;9636;47.382;8.480;2023-11-18T02:46:58;11.70;99.90
19007;DHT22;9636;47.382;8.480;2023-11-18T02:49:26;11.60;99.90
19007;DHT22;9636;47.382;8.480;2023-11-18T02:51:53;11.60;99.90
19007;DHT22;9636;47.382;8.480;2023-11-18T02:54:21;11.60;99.90
19007;DHT22;9636;47.382;8.480;2023-11-18T02:56:48;11.60;99.90
19007;DHT22;9636;47.382;8.480;2023-11-18T02:59:16;11.60;99.90
19007;DHT22;9636;47.382;8.480;2023-11-18T03:01:43;11.60;99.90
19007;DHT22;9636;47.382;8.480;2023-11-18T03:04:10;11.60;99.90
19007;DHT22;9636;47.382;8.480;2023-11-18T03:06:37;11.50;99.90
19007;DHT22;9636;47.382;8.480;2023-11-18T03:09:04;11.50;99.90
19007;DHT22;9636;47.382;8.480;2023-11-18T03:11:33;11.50;99.90
19007;DHT22;9636;47.382;8.480;2023-11-18T03:13:59;11.40;99.90
19007;DHT22;9636;47.382;8.480;2023-11-18T03:16:28;11.40;99.90
19007;DHT22;9636;47.382;8.480;2023-11-18T03:18:55;11.40;99.90
19007;DHT22;9636;47.382;8.480;2023-11-18T03:21:23;11.40;99.90
19007;DHT22;9636;47.382;8.480;2023-11-18T03:23:51;11.40;99.90
19007;DHT22;9636;47.382;8.480;2023-11-18T03:26:19;11.40;99.90
19007;DHT22;9636;47.382;8.480;2023-11-18T03:28:46;11.30;99.90
19007;DHT22;9636;47.382;8.480;2023-11-18T03:31:13;11.30;99.90
19007;DHT22;9636;47.382;8.480;2023-11-18T03:33:42;11.30;99.90
19007;DHT22;9636;47.382;8.480;2023-11-18T03:36:10;11.30;99.90
19007;DHT22;9636;47.382;8.480;2023-11-18T03:38:38;11.30;99.90
19007;DHT22;9636;47.382;8.480;2023-11-18T03:41:05;11.20;99.90
19007;DHT22;9636;47.382;8.480;2023-11-18T03:43:33;11.20;99.90
19007;DHT22;9636;47.382;8.480;2023-11-18T03:46:00;11.20;99.90
19007;DHT22;9636;47.382;8.480;2023-11-18T03:48:27;11.20;99.90
19007;DHT22;9636;47.382;8.480;2023-11-18T03:50:55;11.20;99.90
19007;DHT22;9636;47.382;8.480;2023-11-18T03:53:22;11.20;99.90
19007;DHT22;9636;47.382;8.480;2023-11-18T03:55:49;11.10;99.90
19007;DHT22;9636;47.382;8.480;2023-11-18T03:58:17;11.10;99.90
19007;DHT22;9636;47.382;8.480;2023-11-18T04:00:44;11.10;99.90
19007;DHT22;9636;47.382;8.480;2023-11-18T04:03:11;11.10;99.90
19007;DHT22;9636;47.382;8.480;2023-11-18T04:05:37;11.10;99.90
19007;DHT22;9636;47.382;8.480;2023-11-18T04:08:06;11.10;99.90
19007;DHT22;9636;47.382;8.480;2023-11-18T04:10:33;11.00;99.90
19007;DHT22;9636;47.382;8.480;2023-11-18T04:13:00;11.00;99.90
19007;DHT22;9636;47.382;8.480;2023-11-18T04:15:27;11.00;99.90
19007;DHT22;9636;47.382;8.480;2023-11-18T04:17:54;11.00;99.90
19007;DHT22;9636;47.382;8.480;2023-11-18T04:20:21;11.00;99.90
19007;DHT22;9636;47.382;8.480;2023-11-18T04:22:48;10.90;99.90
19007;DHT22;9636;47.382;8.480;2023-11-18T04:25:17;10.90;99.90
19007;DHT22;9636;47.382;8.480;2023-11-18T04:27:43;10.90;99.90
19007;DHT22;9636;47.382;8.480;2023-11-18T04:30:11;10.90;99.90
19007;DHT22;9636;47.382;8.480;2023-11-18T04:32:38;10.90;99.90
19007;DHT22;9636;47.382;8.480;2023-11-18T04:35:08;10.90;99.90
19007;DHT22;9636;47.382;8.480;2023-11-18T04:37:37;10.90;99.90
19007;DHT22;9636;47.382;8.480;2023-11-18T04:40:08;10.80;99.90
19007;DHT22;9636;47.382;8.480;2023-11-18T04:42:39;10.80;99.90
19007;DHT22;9636;47.382;8.480;2023-11-18T04:45:06;10.80;99.90
19007;DHT22;9636;47.382;8.480;2023-11-18T04:47:35;10.80;99.90
19007;DHT22;9636;47.382;8.480;2023-11-18T04:50:03;10.80;99.90
19007;DHT22;9636;47.382;8.480;2023-11-18T04:52:30;10.70;99.90
19007;DHT22;9636;47.382;8.480;2023-11-18T04:55:00;10.70;99.90
19007;DHT22;9636;47.382;8.480;2023-11-18T04:57:27;10.70;99.90
19007;DHT22;9636;47.382;8.480;2023-11-18T04:59:56;10.70;99.90
19007;DHT22;9636;47.382;8.480;2023-11-18T05:02:22;10.70;99.90
19007;DHT22;9636;47.382;8.480;2023-11-18T05:04:49;10.70;99.90
19007;DHT22;9636;47.382;8.480;2023-11-18T05:07:16;10.70;99.90
19007;DHT22;9636;47.382;8.480;2023-11-18T05:09:43;10.70;99.90
19007;DHT22;9636;47.382;8.480;2023-11-18T05:12:10;10.60;99.90
19007;DHT22;9636;47.382;8.480;2023-11-18T05:14:37;10.60;99.90
19007;DHT22;9636;47.382;8.480;2023-11-18T05:17:06;10.60;99.90
19007;DHT22;9636;47.382;8.480;2023-11-18T05:19:34;10.60;99.90
19007;DHT22;9636;47.382;8.480;2023-11-18T05:22:00;10.60;99.90
19007;DHT22;9636;47.382;8.480;2023-11-18T05:24:27;10.50;99.90
19007;DHT22;9636;47.382;8.480;2023-11-18T05:26:54;10.60;99.90
19007;DHT22;9636;47.382;8.480;2023-11-18T05:29:21;10.50;99.90
19007;DHT22;9636;47.382;8.480;2023-11-18T05:31:51;10.50;99.90
19007;DHT22;9636;47.382;8.480;2023-11-18T05:34:19;10.50;99.90
19007;DHT22;9636;47.382;8.480;2023-11-18T05:36:46;10.50;99.90
19007;DHT22;9636;47.382;8.480;2023-11-18T05:39:14;10.50;99.90
19007;DHT22;9636;47.382;8.480;2023-11-18T05:41:41;10.40;99.90
19007;DHT22;9636;47.382;8.480;2023-11-18T05:44:11;10.40;99.90
19007;DHT22;9636;47.382;8.480;2023-11-18T05:46:43;10.40;99.90
19007;DHT22;9636;47.382;8.480;2023-11-18T05:49:12;10.40;99.90
19007;DHT22;9636;47.382;8.480;2023-11-18T05:51:40;10.40;99.90
19007;DHT22;9636;47.382;8.480;2023-11-18T05:54:07;10.40;99.90
19007;DHT22;9636;47.382;8.480;2023-11-18T05:56:34;10.40;99.90
19007;DHT22;9636;47.382;8.480;2023-11-18T05:59:01;10.40;99.90
19007;DHT22;9636;47.382;8.480;2023-11-18T06:01:29;10.40;99.90
19007;DHT22;9636;47.382;8.480;2023-11-18T06:03:57;10.40;99.90
19007;DHT22;9636;47.382;8.480;2023-11-18T06:06:24;10.40;99.90
19007;DHT22;9636;47.382;8.480;2023-11-18T06:08:53;10.40;99.90
19007;DHT22;9636;47.382;8.480;2023-11-18T06:11:20;10.40;99.90
19007;DHT22;9636;47.382;8.480;2023-11-18T06:13:50;10.40;99.90
19007;DHT22;9636;47.382;8.480;2023-11-18T06:16:18;10.40;99.90
19007;DHT22;9636;47.382;8.480;2023-11-18T06:18:47;10.40;99.90
19007;DHT22;9636;47.382;8.480;2023-11-18T06:21:15;10.40;99.90
19007;DHT22;9636;47.382;8.480;2023-11-18T06:23:42;10.40;99.90
19007;DHT22;9636;47.382;8.480;2023-11-18T06:26:11;10.40;99.90
19007;DHT22;9636;47.382;8.480;2023-11-18T06:28:39;10.40;99.90
19007;DHT22;9636;47.382;8.480;2023-11-18T06:31:06;10.40;99.90
19007;DHT22;9636;47.382;8.480;2023-11-18T06:33:36;10.40;99.90
19007;DHT22;9636;47.382;8.480;2023-11-18T06:36:08;10.50;99.90
19007;DHT22;9636;47.382;8.480;2023-11-18T06:38:36;10.50;99.90
19007;DHT22;9636;47.382;8.480;2023-11-18T06:41:03;10.50;99.90
19007;DHT22;9636;47.382;8.480;2023-11-18T06:43:35;10.50;99.90
19007;DHT22;9636;47.382;8.480;2023-11-18T06:46:18;10.50;99.90
19007;DHT22;9636;47.382;8.480;2023-11-18T06:48:46;10.50;99.90
19007;DHT22;9636;47.382;8.480;2023-11-18T06:51:14;10.50;99.90
19007;DHT22;9636;47.382;8.480;2023-11-18T06:53:42;10.60;99.90
19007;DHT22;9636;47.382;8.480;2023-11-18T06:56:08;10.70;99.90
19007;DHT22;9636;47.382;8.480;2023-11-18T06:58:38;10.70;99.90
19007;DHT22;9636;47.382;8.480;2023-11-18T07:01:05;10.70;99.90
19007;DHT22;9636;47.382;8.480;2023-11-18T07:03:32;10.70;99.90
19007;DHT22;9636;47.382;8.480;2023-11-18T07:05:59;10.70;99.90
19007;DHT22;9636;47.382;8.480;2023-11-18T07:08:25;10.70;99.90
19007;DHT22;9636;47.382;8.480;2023-11-18T07:10:52;10.80;99.90
19007;DHT22;9636;47.382;8.480;2023-11-18T07:13:19;10.90;99.90
19007;DHT22;9636;47.382;8.480;2023-11-18T07:15:49;11.00;99.90
19007;DHT22;9636;47.382;8.480;2023-11-18T07:18:17;11.10;99.90
19007;DHT22;9636;47.382;8.480;2023-11-18T07:20:47;11.10;99.90
19007;DHT22;9636;47.382;8.480;2023-11-18T07:23:14;11.10;99.90
19007;DHT22;9636;47.382;8.480;2023-11-18T07:25:43;11.20;99.90
19007;DHT22;9636;47.382;8.480;2023-11-18T07:28:10;11.20;99.90
19007;DHT22;9636;47.382;8.480;2023-11-18T07:30:36;11.30;99.90
19007;DHT22;9636;47.382;8.480;2023-11-18T07:33:04;11.50;99.90
19007;DHT22;9636;47.382;8.480;2023-11-18T07:35:33;11.70;99.90
19007;DHT22;9636;47.382;8.480;2023-11-18T07:38:02;11.70;99.90
19007;DHT22;9636;47.382;8.480;2023-11-18T07:40:29;11.80;99.90
19007;DHT22;9636;47.382;8.480;2023-11-18T07:42:59;11.80;99.90
19007;DHT22;9636;47.382;8.480;2023-11-18T07:45:27;11.90;99.90
19007;DHT22;9636;47.382;8.480;2023-11-18T07:47:54;12.00;99.90
19007;DHT22;9636;47.382;8.480;2023-11-18T07:50:22;12.00;99.90
19007;DHT22;9636;47.382;8.480;2023-11-18T07:52:50;12.00;99.90
19007;DHT22;9636;47.382;8.480;2023-11-18T07:55:17;12.10;99.90
19007;DHT22;9636;47.382;8.480;2023-11-18T07:57:44;12.10;99.90
19007;DHT22;9636;47.382;8.480;2023-11-18T08:00:12;12.20;99.90
19007;DHT22;9636;47.382;8.480;2023-11-18T08:02:40;12.20;99.90
19007;DHT22;9636;47.382;8.480;2023-11-18T08:05:07;12.20;99.90
19007;DHT22;9636;47.382;8.480;2023-11-18T08:07:36;12.30;99.90
19007;DHT22;9636;47.382;8.480;2023-11-18T08:10:04;12.50;99.90
19007;DHT22;9636;47.382;8.480;2023-11-18T08:12:31;12.50;99.90
19007;DHT22;9636;47.382;8.480;2023-11-18T08:14:59;12.60;99.90
19007;DHT22;9636;47.382;8.480;2023-11-18T08:17:26;12.60;99.90
19007;DHT22;9636;47.382;8.480;2023-11-18T08:19:53;12.60;99.90
19007;DHT22;9636;47.382;8.480;2023-11-18T08:22:21;12.60;99.90
19007;DHT22;9636;47.382;8.480;2023-11-18T08:24:50;12.60;99.90
19007;DHT22;9636;47.382;8.480;2023-11-18T08:27:17;12.60;99.90
19007;DHT22;9636;47.382;8.480;2023-11-18T08:29:44;12.70;99.90
19007;DHT22;9636;47.382;8.480;2023-11-18T08:32:14;12.70;99.90
19007;DHT22;9636;47.382;8.480;2023-11-18T08:34:40;12.80;99.90
19007;DHT22;9636;47.382;8.480;2023-11-18T08:37:07;12.90;99.90
19007;DHT22;9636;47.382;8.480;2023-11-18T08:39:35;13.00;99.90
19007;DHT22;9636;47.382;8.480;2023-11-18T08:42:03;13.10;99.90
19007;DHT22;9636;47.382;8.480;2023-11-18T08:44:33;13.30;99.90
19007;DHT22;9636;47.382;8.480;2023-11-18T08:46:59;13.40;99.90
19007;DHT22;9636;47.382;8.480;2023-11-18T08:49:27;13.70;99.90
19007;DHT22;9636;47.382;8.480;2023-11-18T08:51:59;13.90;99.90
19007;DHT22;9636;47.382;8.480;2023-11-18T08:54:27;14.20;99.90
19007;DHT22;9636;47.382;8.480;2023-11-18T08:57:04;14.50;99.90
19007;DHT22;9636;47.382;8.480;2023-11-18T08:59:45;14.90;99.90
19007;DHT22;9636;47.382;8.480;2023-11-18T09:02:12;15.20;99.90
19007;DHT22;9636;47.382;8.480;2023-11-18T09:04:40;15.50;99.90
19007;DHT22;9636;47.382;8.480;2023-11-18T09:07:08;15.70;99.90
19007;DHT22;9636;47.382;8.480;2023-11-18T09:09:36;15.90;99.90
19007;DHT22;9636;47.382;8.480;2023-11-18T09:12:05;16.10;99.90
19007;DHT22;9636;47.382;8.480;2023-11-18T09:14:34;16.40;99.90
19007;DHT22;9636;47.382;8.480;2023-11-18T09:17:01;16.70;99.90
19007;DHT22;9636;47.382;8.480;2023-11-18T09:19:27;17.00;99.90
19007;DHT22;9636;47.382;8.480;2023-11-18T09:21:55;17.40;99.90
19007;DHT22;9636;47.382;8.480;2023-11-18T09:24:22;17.80;99.90
19007;DHT22;9636;47.382;8.480;2023-11-18T09:26:50;18.30;99.90
19007;DHT22;9636;47.382;8.480;2023-11-18T09:29:19;18.30;99.90
19007;DHT22;9636;47.382;8.480;2023-11-18T09:31:49;18.10;99.90
19007;DHT22;9636;47.382;8.480;2023-11-18T09:34:18;18.20;99.90
19007;DHT22;9636;47.382;8.480;2023-11-18T09:36:53;18.10;99.90
19007;DHT22;9636;47.382;8.480;2023-11-18T09:39:20;18.20;99.90
19007;DHT22;9636;47.382;8.480;2023-11-18T09:42:04;18.20;99.90
19007;DHT22;9636;47.382;8.480;2023-11-18T09:44:36;18.00;99.90
19007;DHT22;9636;47.382;8.480;2023-11-18T09:47:05;18.00;99.90
19007;DHT22;9636;47.382;8.480;2023-11-18T09:49:40;17.90;99.90
19007;DHT22;9636;47.382;8.480;2023-11-18T09:52:13;17.80;99.90
19007;DHT22;9636;47.382;8.480;2023-11-18T09:54:48;17.80;99.90
19007;DHT22;9636;47.382;8.480;2023-11-18T09:57:25;17.70;99.90
19007;DHT22;9636;47.382;8.480;2023-11-18T10:00:00;17.70;99.90
19007;DHT22;9636;47.382;8.480;2023-11-18T10:02:38;17.60;99.90
19007;DHT22;9636;47.382;8.480;2023-11-18T10:05:06;17.70;99.90
19007;DHT22;9636;47.382;8.480;2023-11-18T10:07:38;17.70;99.90
19007;DHT22;9636;47.382;8.480;2023-11-18T10:10:07;17.70;99.90
19007;DHT22;9636;47.382;8.480;2023-11-18T10:12:40;17.70;99.90
19007;DHT22;9636;47.382;8.480;2023-11-18T10:15:11;17.70;99.90
19007;DHT22;9636;47.382;8.480;2023-11-18T10:17:41;17.60;99.90
19007;DHT22;9636;47.382;8.480;2023-11-18T10:20:21;17.70;99.90
19007;DHT22;9636;47.382;8.480;2023-11-18T10:23:06;17.70;99.90
19007;DHT22;9636;47.382;8.480;2023-11-18T10:25:35;17.70;99.90
19007;DHT22;9636;47.382;8.480;2023-11-18T10:28:06;17.70;99.90
19007;DHT22;9636;47.382;8.480;2023-11-18T10:30:44;17.70;99.90
19007;DHT22;9636;47.382;8.480;2023-11-18T10:33:14;17.80;99.90
19007;DHT22;9636;47.382;8.480;2023-11-18T10:35:49;17.70;99.90
19007;DHT22;9636;47.382;8.480;2023-11-18T10:38:17;17.70;99.90
19007;DHT22;9636;47.382;8.480;2023-11-18T10:40:44;17.70;99.90
19007;DHT22;9636;47.382;8.480;2023-11-18T10:43:11;17.70;99.90
19007;DHT22;9636;47.382;8.480;2023-11-18T10:45:38;17.80;99.90
19007;DHT22;9636;47.382;8.480;2023-11-18T10:48:08;17.80;99.90
19007;DHT22;9636;47.382;8.480;2023-11-18T10:50:35;17.80;99.90
19007;DHT22;9636;47.382;8.480;2023-11-18T10:53:02;17.80;99.90
19007;DHT22;9636;47.382;8.480;2023-11-18T10:55:36;17.70;99.90
19007;DHT22;9636;47.382;8.480;2023-11-18T10:58:03;17.70;99.90
19007;DHT22;9636;47.382;8.480;2023-11-18T11:00:46;17.70;99.90
19007;DHT22;9636;47.382;8.480;2023-11-18T11:03:15;17.70;99.90
19007;DHT22;9636;47.382;8.480;2023-11-18T11:05:43;17.70;99.90
19007;DHT22;9636;47.382;8.480;2023-11-18T11:08:13;17.70;99.90
19007;DHT22;9636;47.382;8.480;2023-11-18T11:10:41;17.80;99.90
19007;DHT22;9636;47.382;8.480;2023-11-18T11:13:09;17.70;99.90
19007;DHT22;9636;47.382;8.480;2023-11-18T11:15:41;17.70;99.90
19007;DHT22;9636;47.382;8.480;2023-11-18T11:18:11;17.70;99.90
19007;DHT22;9636;47.382;8.480;2023-11-18T11:20:50;17.70;99.90
19007;DHT22;9636;47.382;8.480;2023-11-18T11:23:31;17.70;99.90
19007;DHT22;9636;47.382;8.480;2023-11-18T11:26:18;17.70;99.90
19007;DHT22;9636;47.382;8.480;2023-11-18T11:28:58;17.70;99.90
19007;DHT22;9636;47.382;8.480;2023-11-18T11:31:32;17.70;99.90
19007;DHT22;9636;47.382;8.480;2023-11-18T11:34:04;17.70;99.90
19007;DHT22;9636;47.382;8.480;2023-11-18T11:36:37;17.70;99.90
19007;DHT22;9636;47.382;8.480;2023-11-18T11:39:08;17.70;99.90
19007;DHT22;9636;47.382;8.480;2023-11-18T11:41:36;17.60;99.90
19007;DHT22;9636;47.382;8.480;2023-11-18T11:44:05;17.70;99.90
19007;DHT22;9636;47.382;8.480;2023-11-18T11:46:33;17.60;99.90
19007;DHT22;9636;47.382;8.480;2023-11-18T11:49:03;17.60;99.90
19007;DHT22;9636;47.382;8.480;2023-11-18T11:51:45;17.70;99.90
19007;DHT22;9636;47.382;8.480;2023-11-18T11:54:20;17.70;99.90
19007;DHT22;9636;47.382;8.480;2023-11-18T11:56:48;17.60;99.90
19007;DHT22;9636;47.382;8.480;2023-11-18T11:59:35;17.60;99.90
19007;DHT22;9636;47.382;8.480;2023-11-18T12:02:03;17.60;99.90
19007;DHT22;9636;47.382;8.480;2023-11-18T12:04:33;17.70;99.90
19007;DHT22;9636;47.382;8.480;2023-11-18T12:07:05;17.60;99.90
19007;DHT22;9636;47.382;8.480;2023-11-18T12:09:35;17.60;99.90
19007;DHT22;9636;47.382;8.480;2023-11-18T12:12:04;17.60;99.90
19007;DHT22;9636;47.382;8.480;2023-11-18T12:14:49;17.50;99.90
19007;DHT22;9636;47.382;8.480;2023-11-18T12:17:18;17.50;99.90
19007;DHT22;9636;47.382;8.480;2023-11-18T12:19:48;17.50;99.90
19007;DHT22;9636;47.382;8.480;2023-11-18T12:22:18;17.50;99.90
19007;DHT22;9636;47.382;8.480;2023-11-18T12:27:58;17.50;99.90
19007;DHT22;9636;47.382;8.480;2023-11-18T12:30:44;17.50;99.90
19007;DHT22;9636;47.382;8.480;2023-11-18T12:34:01;17.40;99.90
19007;DHT22;9636;47.382;8.480;2023-11-18T12:43:02;17.30;99.90
19007;DHT22;9636;47.382;8.480;2023-11-18T12:46:09;17.20;99.90
19007;DHT22;9636;47.382;8.480;2023-11-18T12:48:43;17.10;99.90
19007;DHT22;9636;47.382;8.480;2023-11-18T12:51:12;17.00;99.90
19007;DHT22;9636;47.382;8.480;2023-11-18T12:53:47;17.00;99.90
19007;DHT22;9636;47.382;8.480;2023-11-18T12:56:16;17.00;99.90
19007;DHT22;9636;47.382;8.480;2023-11-18T12:58:46;16.90;99.90
19007;DHT22;9636;47.382;8.480;2023-11-18T13:01:13;16.90;99.90
19007;DHT22;9636;47.382;8.480;2023-11-18T13:03:41;16.80;99.90
19007;DHT22;9636;47.382;8.480;2023-11-18T13:06:10;16.80;99.90
19007;DHT22;9636;47.382;8.480;2023-11-18T13:08:37;16.80;99.90
19007;DHT22;9636;47.382;8.480;2023-11-18T13:11:05;16.80;99.90
19007;DHT22;9636;47.382;8.480;2023-11-18T13:13:37;16.80;99.90
19007;DHT22;9636;47.382;8.480;2023-11-18T13:16:08;16.70;99.90
19007;DHT22;9636;47.382;8.480;2023-11-18T13:18:42;16.70;99.90
19007;DHT22;9636;47.382;8.480;2023-11-18T13:21:13;16.70;99.90
19007;DHT22;9636;47.382;8.480;2023-11-18T13:23:45;16.60;99.90
19007;DHT22;9636;47.382;8.480;2023-11-18T13:26:12;16.60;99.90
19007;DHT22;9636;47.382;8.480;2023-11-18T13:28:39;16.60;99.90
19007;DHT22;9636;47.382;8.480;2023-11-18T13:31:08;16.60;99.90
19007;DHT22;9636;47.382;8.480;2023-11-18T13:33:37;16.60;99.90
19007;DHT22;9636;47.382;8.480;2023-11-18T13:36:05;16.60;99.90
19007;DHT22;9636;47.382;8.480;2023-11-18T13:38:35;16.60;99.90
19007;DHT22;9636;47.382;8.480;2023-11-18T13:41:03;16.60;99.90
19007;DHT22;9636;47.382;8.480;2023-11-18T13:43:41;16.60;99.90
19007;DHT22;9636;47.382;8.480;2023-11-18T13:46:11;16.50;99.90
19007;DHT22;9636;47.382;8.480;2023-11-18T13:48:39;16.50;99.90
19007;DHT22;9636;47.382;8.480;2023-11-18T13:51:08;16.50;99.90
19007;DHT22;9636;47.382;8.480;2023-11-18T13:53:38;16.50;99.90
19007;DHT22;9636;47.382;8.480;2023-11-18T13:56:06;16.50;99.90
19007;DHT22;9636;47.382;8.480;2023-11-18T13:58:34;16.50;99.90
19007;DHT22;9636;47.382;8.480;2023-11-18T14:01:05;16.50;99.90
19007;DHT22;9636;47.382;8.480;2023-11-18T14:03:34;16.50;99.90
19007;DHT22;9636;47.382;8.480;2023-11-18T14:06:02;16.40;99.90
19007;DHT22;9636;47.382;8.480;2023-11-18T14:08:30;16.40;99.90
19007;DHT22;9636;47.382;8.480;2023-11-18T14:10:57;16.40;99.90
19007;DHT22;9636;47.382;8.480;2023-11-18T14:13:23;16.40;99.90
19007;DHT22;9636;47.382;8.480;2023-11-18T14:15:54;16.40;99.90
19007;DHT22;9636;47.382;8.480;2023-11-18T14:18:23;16.30;99.90
19007;DHT22;9636;47.382;8.480;2023-11-18T14:20:51;16.30;99.90
19007;DHT22;9636;47.382;8.480;2023-11-18T14:23:18;16.30;99.90
19007;DHT22;9636;47.382;8.480;2023-11-18T14:25:47;16.30;99.90
19007;DHT22;9636;47.382;8.480;2023-11-18T14:28:14;16.30;99.90
19007;DHT22;9636;47.382;8.480;2023-11-18T14:30:41;16.20;99.90
19007;DHT22;9636;47.382;8.480;2023-11-18T14:33:08;16.20;99.90
19007;DHT22;9636;47.382;8.480;2023-11-18T14:35:35;16.20;99.90
19007;DHT22;9636;47.382;8.480;2023-11-18T14:38:03;16.20;99.90
19007;DHT22;9636;47.382;8.480;2023-11-18T14:40:30;16.20;99.90
19007;DHT22;9636;47.382;8.480;2023-11-18T14:42:57;16.20;99.90
19007;DHT22;9636;47.382;8.480;2023-11-18T14:45:24;16.10;99.90
19007;DHT22;9636;47.382;8.480;2023-11-18T14:47:51;16.10;99.90
19007;DHT22;9636;47.382;8.480;2023-11-18T14:50:22;16.10;99.90
19007;DHT22;9636;47.382;8.480;2023-11-18T14:52:50;16.10;99.90
19007;DHT22;9636;47.382;8.480;2023-11-18T14:55:25;16.00;99.90
19007;DHT22;9636;47.382;8.480;2023-11-18T14:57:52;16.00;99.90
19007;DHT22;9636;47.382;8.480;2023-11-18T15:00:21;16.00;99.90
19007;DHT22;9636;47.382;8.480;2023-11-18T15:02:51;16.00;99.90
19007;DHT22;9636;47.382;8.480;2023-11-18T15:05:18;15.90;99.90
19007;DHT22;9636;47.382;8.480;2023-11-18T15:07:46;15.90;99.90
19007;DHT22;9636;47.382;8.480;2023-11-18T15:10:17;15.90;99.90
19007;DHT22;9636;47.382;8.480;2023-11-18T15:12:49;15.90;99.90
19007;DHT22;9636;47.382;8.480;2023-11-18T15:15:19;15.90;99.90
19007;DHT22;9636;47.382;8.480;2023-11-18T15:17:46;15.90;99.90
19007;DHT22;9636;47.382;8.480;2023-11-18T15:20:15;15.80;99.90
19007;DHT22;9636;47.382;8.480;2023-11-18T15:22:44;15.80;99.90
19007;DHT22;9636;47.382;8.480;2023-11-18T15:25:11;15.80;99.90
19007;DHT22;9636;47.382;8.480;2023-11-18T15:27:40;15.70;99.90
19007;DHT22;9636;47.382;8.480;2023-11-18T15:30:09;15.70;99.90
19007;DHT22;9636;47.382;8.480;2023-11-18T15:32:38;15.70;99.90
19007;DHT22;9636;47.382;8.480;2023-11-18T15:35:07;15.70;99.90
19007;DHT22;9636;47.382;8.480;2023-11-18T15:37:36;15.60;99.90
19007;DHT22;9636;47.382;8.480;2023-11-18T15:40:05;15.60;99.90
19007;DHT22;9636;47.382;8.480;2023-11-18T15:42:37;15.60;99.90
19007;DHT22;9636;47.382;8.480;2023-11-18T15:45:08;15.60;99.90
19007;DHT22;9636;47.382;8.480;2023-11-18T15:47:36;15.60;99.90
19007;DHT22;9636;47.382;8.480;2023-11-18T15:50:04;15.60;99.90
19007;DHT22;9636;47.382;8.480;2023-11-18T15:52:32;15.50;99.90
19007;DHT22;9636;47.382;8.480;2023-11-18T15:55:00;15.50;99.90
19007;DHT22;9636;47.382;8.480;2023-11-18T15:57:27;15.50;99.90
19007;DHT22;9636;47.382;8.480;2023-11-18T15:59:54;15.40;99.90
19007;DHT22;9636;47.382;8.480;2023-11-18T16:02:22;15.40;99.90
19007;DHT22;9636;47.382;8.480;2023-11-18T16:04:50;15.40;99.90
19007;DHT22;9636;47.382;8.480;2023-11-18T16:07:17;15.40;99.90
19007;DHT22;9636;47.382;8.480;2023-11-18T16:09:43;15.30;99.90